Data for 01/17/2017

Time Sea-Level Adjusted Pressure Absolute Pressure Temperature Relative Humidity Dew Point   
(mb) (inHg) (mb) (inHg) (C) (F) (%) (C) (F)
00:05 1020 30.12 849 25.07 -7.1 19.3 58 -14.1 6.7
00:10 1020 30.12 849 25.07 -6.5 20.3 58 -13.5 7.6
00:15 1020 30.12 849 25.07 -7.1 19.3 59 -13.8 7.1
00:20 1020 30.12 849 25.07 -6.6 20.2 58 -13.5 7.8
00:25 1020 30.12 849 25.07 -6.7 19.9 59 -13.5 7.7
00:30 1020 30.12 849 25.07 -6.6 20.1 57 -13.7 7.3
00:35 1020 30.12 849 25.07 -6.4 20.5 57 -13.6 7.5
00:40 1020 30.12 849 25.07 -6.9 19.6 60 -13.4 7.9
00:45 1020 30.12 849 25.07 -7.9 17.8 63 -13.8 7.1
00:50 1020 30.12 849 25.07 -8.5 16.7 64 -14.1 6.7
00:55 1020 30.12 849 25.07 -8.6 16.6 64 -14.2 6.5
01:00 1020 30.12 849 25.07 -8.4 16.9 62 -14.4 6.1
01:05 1020 30.12 849 25.07 -7.8 17.9 61 -14 6.8
01:10 1020 30.12 849 25.07 -7.5 18.4 60 -14.1 6.7
01:15 1019 30.09 849 25.07 -7.3 18.8 59 -14 6.8
01:20 1019 30.09 849 25.07 -7.3 18.8 59 -14.1 6.6
01:25 1020 30.12 849 25.07 -7.3 19 59 -13.9 7
01:30 1019 30.09 849 25.07 -7.4 18.6 60 -14 6.8
01:35 1019 30.09 849 25.07 -7.6 18.4 59 -14.2 6.5
01:40 1019 30.09 849 25.07 -7.3 18.8 59 -14.1 6.7
01:45 1019 30.09 849 25.07 -7.2 19 59 -14 6.8
01:50 1019 30.09 849 25.07 -7.3 18.9 60 -13.8 7.2
01:55 1019 30.09 849 25.07 -7.3 18.9 61 -13.6 7.5
02:00 1019 30.09 849 25.07 -7.2 19 60 -13.7 7.3
02:05 1019 30.09 849 25.07 -7 19.3 60 -13.4 7.8
02:10 1019 30.09 849 25.07 -6.8 19.7 61 -13.2 8.2
02:15 1019 30.09 849 25.07 -6.9 19.6 61 -13.1 8.3
02:20 1019 30.09 849 25.07 -6.9 19.5 63 -13 8.7
02:25 1019 30.09 849 25.07 -7 19.3 63 -12.9 8.7
02:30 1019 30.09 849 25.07 -7.1 19.2 64 -12.9 8.8
02:35 1019 30.09 849 25.07 -7.5 18.6 65 -13 8.7
02:40 1020 30.12 849 25.07 -7.6 18.4 64 -13.2 8.2
02:45 1020 30.12 849 25.07 -8.4 17 67 -13.4 7.9
02:50 1020 30.12 849 25.07 -8.5 16.6 68 -13.5 7.7
02:55 1020 30.12 849 25.07 -8.1 17.5 68 -13.1 8.5
03:00 1020 30.12 849 25.07 -7.6 18.3 66 -13 8.6
03:05 1020 30.12 849 25.07 -7.4 18.6 65 -12.8 8.9
03:10 1020 30.12 849 25.07 -7.6 18.4 66 -12.8 8.9
03:15 1019 30.09 849 25.07 -7.8 18 67 -12.8 8.9
03:20 1019 30.09 849 25.07 -7.7 18.2 66 -13 8.6
03:25 1019 30.09 849 25.07 -6.9 19.7 62 -13 8.6
03:30 1019 30.09 849 25.07 -6.4 20.4 60 -12.9 8.8
03:35 1019 30.09 848 25.04 -7.7 18.2 64 -13.4 7.9
03:40 1019 30.09 848 25.04 -8.1 17.3 63 -13.9 6.9
03:45 1019 30.09 848 25.04 -8.3 17.1 64 -13.9 6.9
03:50 1019 30.09 848 25.04 -8.5 16.6 64 -14.1 6.5
03:55 1019 30.09 848 25.04 -8.4 17 62 -14.4 6.1
04:00 1019 30.09 848 25.04 -7.6 18.4 60 -14 6.9
04:05 1019 30.09 848 25.04 -7.7 18.1 60 -14.2 6.5
04:10 1019 30.09 848 25.04 -7.6 18.3 61 -13.9 7
04:15 1019 30.09 848 25.04 -7.6 18.4 63 -13.5 7.7
04:20 1019 30.09 848 25.04 -7.5 18.4 63 -13.5 7.7
04:25 1019 30.09 848 25.04 -7.7 18.1 63 -13.7 7.3
04:30 1019 30.09 848 25.04 -7.6 18.4 62 -13.7 7.3
04:35 1019 30.09 848 25.04 -7.4 18.7 61 -13.7 7.3
04:40 1019 30.09 848 25.04 -7.2 19.1 61 -13.4 7.8
04:45 1019 30.09 848 25.04 -7.1 19.2 63 -13.1 8.4
04:50 1019 30.09 848 25.04 -7.3 18.8 60 -13.8 7.2
04:55 1019 30.09 848 25.04 -6.6 20.2 58 -13.5 7.7
05:00 1019 30.09 848 25.04 -6.4 20.4 58 -13.5 7.7
05:05 1018 30.06 848 25.04 -6.9 19.5 60 -13.4 7.9
05:10 1018 30.06 848 25.04 -7 19.3 59 -13.7 7.4
05:15 1018 30.06 848 25.04 -8.2 17.2 66 -13.5 7.8
05:20 1018 30.06 848 25.04 -8.4 16.9 63 -14.2 6.4
05:25 1018 30.06 848 25.04 -8.9 16 67 -13.9 6.9
05:30 1018 30.06 848 25.04 -8.9 16 69 -13.6 7.6
05:35 1018 30.06 848 25.04 -8.6 16.6 68 -13.4 7.8
05:40 1018 30.06 848 25.04 -8.6 16.5 68 -13.4 7.9
05:45 1018 30.06 848 25.04 -8 17.6 65 -13.6 7.6
05:50 1018 30.06 848 25.04 -7.7 18.1 63 -13.5 7.7
05:55 1018 30.06 848 25.04 -7.5 18.5 63 -13.4 7.9
06:00 1018 30.06 848 25.04 -7.7 18.1 64 -13.4 7.9
06:05 1018 30.06 848 25.04 -7.7 18.1 63 -13.6 7.5
06:10 1018 30.06 848 25.04 -7.1 19.2 60 -13.6 7.6
06:15 1018 30.06 848 25.04 -6.8 19.8 60 -13.4 7.9
06:20 1018 30.06 848 25.04 -6.7 19.9 59 -13.4 7.9
06:25 1018 30.06 848 25.04 -6.7 19.9 60 -13.3 8
06:30 1018 30.06 848 25.04 -6.9 19.6 61 -13.2 8.2
06:35 1018 30.06 848 25.04 -7.2 19.1 63 -13.1 8.3
06:40 1019 30.09 848 25.04 -7.3 18.9 62 -13.3 8.1
06:45 1018 30.06 848 25.04 -7.2 19.1 62 -13.3 8.1
06:50 1018 30.06 848 25.04 -7 19.5 62 -13.1 8.4
06:55 1018 30.06 848 25.04 -6.7 20 60 -13.1 8.4
07:00 1018 30.06 848 25.04 -6.5 20.3 60 -12.9 8.7
07:05 1018 30.06 848 25.04 -6.2 20.8 60 -12.9 8.8
07:10 1018 30.06 848 25.04 -6.3 20.7 60 -12.8 8.9
07:15 1018 30.06 848 25.04 -6.5 20.4 61 -12.8 8.9
07:20 1018 30.06 848 25.04 -6.7 20 62 -12.9 8.9
07:25 1018 30.06 848 25.04 -6.7 19.9 61 -13 8.6
07:30 1019 30.09 848 25.04 -6.7 20 61 -13 8.7
07:35 1019 30.09 848 25.04 -6.7 20 61 -12.9 8.8
07:40 1019 30.09 848 25.04 -6.7 20 62 -12.8 8.9
07:45 1019 30.09 848 25.04 -7 19.4 64 -12.8 9
07:50 1019 30.09 848 25.04 -7 19.3 63 -13 8.7
07:55 1019 30.09 848 25.04 -7.2 19.1 65 -12.7 9.1
08:00 1019 30.09 848 25.04 -7.5 18.5 67 -12.7 9.2
08:05 1019 30.09 848 25.04 -7.6 18.3 67 -12.7 9.2
08:10 1019 30.09 848 25.04 -7.7 18.1 69 -12.5 9.5
08:15 1019 30.09 848 25.04 -7.5 18.6 66 -12.8 8.9
08:20 1019 30.09 848 25.04 -6.9 19.5 63 -12.7 9.1
08:25 1019 30.09 848 25.04 -6.7 20 63 -12.5 9.5
08:30 1019 30.09 848 25.04 -6.8 19.8 65 -12.3 9.8
08:35 1019 30.09 848 25.04 -6.9 19.6 64 -12.5 9.4
08:40 1019 30.09 848 25.04 -6.6 20 64 -12.4 9.6
08:45 1019 30.09 848 25.04 -6.5 20.3 63 -12.3 9.8
08:50 1019 30.09 848 25.04 -6.2 20.8 63 -12.2 10.1
08:55 1019 30.09 848 25.04 -6 21.1 64 -11.9 10.6
09:00 1019 30.09 848 25.04 -6 21.2 62 -12.1 10.3
09:05 1019 30.09 848 25.04 -5.8 21.5 63 -11.8 10.8
09:10 1019 30.09 848 25.04 -6.5 20.3 64 -12.3 9.9
09:15 1019 30.09 848 25.04 -6.9 19.7 64 -12.6 9.3
09:20 1019 30.09 848 25.04 -6.7 19.9 61 -13 8.5
09:25 1019 30.09 848 25.04 -6.4 20.5 60 -13 8.7
09:30 1019 30.09 848 25.04 -6 21.2 58 -13.1 8.5
09:35 1019 30.09 848 25.04 -5.4 22.3 56 -12.9 8.7
09:40 1019 30.09 848 25.04 -4.6 23.7 53 -12.8 8.9
09:45 1019 30.09 848 25.04 -4.4 24.1 52 -12.7 9.1
09:50 1019 30.09 848 25.04 -4.2 24.4 51 -12.8 8.9
09:55 1019 30.09 848 25.04 -4 24.8 50 -13 8.6
10:00 1019 30.09 848 25.04 -3.6 25.6 49 -12.8 9
10:05 1019 30.09 848 25.04 -3.3 26 48 -12.8 9
10:10 1019 30.09 848 25.04 -2.9 26.9 47 -12.6 9.4
10:15 1019 30.09 848 25.04 -2.4 27.7 45 -12.7 9.1
10:20 1019 30.09 848 25.04 -1.4 29.4 43 -12.5 9.5
10:25 1019 30.09 848 25.04 -1 30.3 44 -11.8 10.8
10:30 1019 30.09 848 25.04 -0.6 30.8 43 -11.7 11
10:35 1019 30.09 848 25.04 -0.6 30.8 42 -11.9 10.5
10:40 1019 30.09 848 25.04 0.1 32.3 39 -12.3 9.9
10:45 1019 30.09 848 25.04 0.8 33.4 39 -11.7 11
10:50 1019 30.09 848 25.04 0.5 32.9 43 -10.8 12.6
10:55 1019 30.09 848 25.04 -0 31.9 44 -10.9 12.3
11:00 1019 30.09 848 25.04 0 32 43 -11.3 11.7
11:05 1019 30.09 848 25.04 0.2 32.3 42 -11.3 11.7
11:10 1019 30.09 848 25.04 0.1 32.1 43 -11.1 12
11:15 1019 30.09 848 25.04 0.2 32.3 42 -11.4 11.4
11:20 1019 30.09 848 25.04 0.3 32.5 42 -11.3 11.6
11:25 1019 30.09 848 25.04 0 32 41 -11.6 11.1
11:30 1019 30.09 848 25.04 -0.5 31.1 43 -11.6 11
11:35 1019 30.09 848 25.04 -0.1 31.8 40 -12.3 9.9
11:40 1019 30.09 848 25.04 -0.1 31.9 40 -12.1 10.3
11:45 1019 30.09 848 25.04 -0.3 31.5 41 -12.1 10.2
11:50 1019 30.09 848 25.04 -0.1 31.8 39 -12.4 9.6
11:55 1019 30.09 848 25.04 -0.5 31.2 42 -11.9 10.5
12:00 1019 30.09 848 25.04 -0.3 31.4 40 -12.4 9.6
12:05 1019 30.09 848 25.04 -0.2 31.6 39 -12.5 9.4
12:10 1018 30.06 848 25.04 -0.8 30.6 41 -12.4 9.7
12:15 1018 30.06 848 25.04 -0.4 31.3 44 -11.2 11.9
12:20 1018 30.06 848 25.04 -0.5 31.1 43 -11.7 11
12:25 1018 30.06 847 25.01 -0.7 30.7 45 -11.2 11.8
12:30 1018 30.06 847 25.01 -0.7 30.8 44 -11.4 11.5
12:35 1018 30.06 847 25.01 -0.2 31.7 41 -11.8 10.8
12:40 1018 30.06 847 25.01 0.5 32.9 40 -11.7 10.9
12:45 1018 30.06 847 25.01 0.4 32.8 41 -11.3 11.7
12:50 1018 30.06 847 25.01 0.9 33.6 39 -11.4 11.5
12:55 1018 30.06 847 25.01 1.7 35 36 -12 10.4
13:00 1017 30.03 847 25.01 1.8 35.2 37 -11.5 11.3
13:05 1017 30.03 847 25.01 1.2 34.2 38 -11.5 11.3
13:10 1017 30.03 847 25.01 1.3 34.3 38 -11.7 10.9
13:15 1017 30.03 846 24.98 1.2 34.2 37 -11.8 10.8
13:20 1017 30.03 846 24.98 1.7 35 37 -11.4 11.4
13:25 1017 30.03 846 24.98 1.8 35.3 36 -11.8 10.8
13:30 1017 30.03 846 24.98 2 35.5 38 -11 12.1
13:35 1017 30.03 846 24.98 2.4 36.2 35 -11.5 11.3
13:40 1017 30.03 846 24.98 2.8 37 33 -12 10.3
13:45 1017 30.03 846 24.98 3.2 37.7 32 -12 10.4
13:50 1017 30.03 846 24.98 3.1 37.7 33 -11.5 11.4
13:55 1017 30.03 846 24.98 3.1 37.5 33 -11.5 11.2
14:00 1017 30.03 846 24.98 2.8 37 36 -11 12.3
14:05 1017 30.03 846 24.98 1.9 35.5 39 -10.7 12.7
14:10 1017 30.03 846 24.98 1.6 34.9 36 -11.8 10.8
14:15 1017 30.03 846 24.98 1.6 34.8 39 -11.1 12.1
14:20 1017 30.03 846 24.98 1.8 35.2 37 -11.3 11.6
14:25 1017 30.03 846 24.98 1.8 35.2 36 -11.8 10.8
14:30 1017 30.03 846 24.98 1.8 35.3 36 -11.9 10.6
14:35 1017 30.03 846 24.98 0.8 33.4 39 -11.7 10.9
14:40 1017 30.03 846 24.98 0.7 33.2 38 -12.2 10.1
14:45 1017 30.03 846 24.98 1.2 34.2 35 -12.6 9.3
14:50 1017 30.03 846 24.98 1.1 33.9 38 -11.6 11.1
14:55 1017 30.03 846 24.98 1.3 34.3 36 -12.2 10
15:00 1017 30.03 846 24.98 1.7 35 36 -11.8 10.7
15:05 1017 30.03 846 24.98 1.6 34.8 37 -11.5 11.3
15:10 1017 30.03 846 24.98 1.3 34.4 37 -11.7 11
15:15 1017 30.03 846 24.98 1.5 34.7 38 -11.5 11.2
15:20 1017 30.03 846 24.98 0.9 33.7 38 -11.9 10.7
15:25 1017 30.03 846 24.98 1.4 34.6 37 -11.7 11
15:30 1017 30.03 846 24.98 1.7 35.1 37 -11.6 11.1
15:35 1017 30.03 846 24.98 1.4 34.5 36 -12 10.4
15:40 1017 30.03 846 24.98 1.3 34.4 36 -12.2 10
15:45 1017 30.03 846 24.98 1.4 34.5 37 -11.8 10.7
15:50 1017 30.03 846 24.98 1.9 35.4 35 -12 10.4
15:55 1017 30.03 846 24.98 2.1 35.7 36 -11.4 11.5
16:00 1017 30.03 846 24.98 1.2 34.1 39 -11.4 11.5
16:05 1017 30.03 846 24.98 1.1 34.1 38 -11.5 11.2
16:10 1017 30.03 846 24.98 0.8 33.4 39 -11.5 11.2
16:15 1016 30 846 24.98 0.6 33 41 -11.3 11.6
16:20 1016 30 846 24.98 0.6 33 40 -11.7 11
16:25 1017 30.03 846 24.98 0.5 32.9 40 -11.7 10.9
16:30 1017 30.03 846 24.98 0.5 32.8 40 -11.6 11
16:35 1016 30 846 24.98 0.8 33.4 39 -11.6 11.1
16:40 1016 30 846 24.98 0.9 33.6 39 -11.5 11.3
16:45 1016 30 846 24.98 0.3 32.6 40 -11.7 10.9
16:50 1016 30 846 24.98 0.2 32.3 41 -11.7 11
16:55 1016 30 846 24.98 0.1 32.2 41 -11.6 11.1
17:00 1016 30 846 24.98 0.1 32.1 42 -11.5 11.3
17:05 1016 30 846 24.98 -0.2 31.6 46 -10.6 13
17:10 1017 30.03 846 24.98 -0.7 30.8 48 -10.3 13.5
17:15 1016 30 846 24.98 -0.8 30.6 48 -10.5 13.1
17:20 1016 30 846 24.98 -1.2 29.9 50 -10.3 13.4
17:25 1016 30 846 24.98 -1.5 29.4 51 -10.3 13.4
17:30 1016 30 846 24.98 -1.6 29.1 52 -10.3 13.4
17:35 1016 30 846 24.98 -1.7 28.9 53 -10.2 13.7
17:40 1016 30 846 24.98 -1.8 28.7 51 -10.6 12.9
17:45 1016 30 846 24.98 -1.8 28.7 51 -10.7 12.8
17:50 1016 30 846 24.98 -2.3 27.8 52 -10.9 12.3
17:55 1016 30 846 24.98 -2.9 26.7 53 -11.3 11.7
18:00 1016 30 846 24.98 -3.3 26.1 55 -11.1 12.1
18:05 1016 30 845 24.95 -3.5 25.7 55 -11.3 11.7
18:10 1016 30 845 24.95 -3.5 25.8 56 -11 12.3
18:15 1016 30 845 24.95 -3.6 25.6 56 -11.1 12
18:20 1016 30 845 24.95 -3.4 25.8 56 -10.9 12.3
18:25 1016 30 845 24.95 -2.8 26.9 53 -11.2 11.9
18:30 1016 30 845 24.95 -2.7 27.1 53 -10.9 12.3
18:35 1016 30 845 24.95 -3.3 26 55 -11.2 11.8
18:40 1016 30 845 24.95 -3.6 25.6 55 -11.3 11.7
18:45 1016 30 845 24.95 -3.6 25.5 55 -11.4 11.5
18:50 1016 30 845 24.95 -3.2 26.3 53 -11.5 11.3
18:55 1016 30 845 24.95 -3.1 26.4 54 -11.3 11.7
19:00 1016 30 845 24.95 -3.4 25.9 55 -11.2 11.9
19:05 1016 30 845 24.95 -3.7 25.4 57 -11 12.1
19:10 1016 30 846 24.98 -3.6 25.4 56 -11.2 11.9
19:15 1016 30 845 24.95 -3.4 25.9 55 -11.2 11.9
19:20 1016 30 845 24.95 -3.3 26 56 -11 12.2
19:25 1016 30 845 24.95 -3.3 26.1 55 -10.9 12.3
19:30 1016 30 845 24.95 -3.1 26.4 56 -10.7 12.8
19:35 1016 30 845 24.95 -2.9 26.7 55 -10.8 12.6
19:40 1016 30 845 24.95 -1.9 28.6 51 -10.6 12.9
19:45 1016 30 845 24.95 -2 28.4 56 -9.7 14.6
19:50 1016 30 845 24.95 -3.1 26.4 55 -10.8 12.5
19:55 1016 30 845 24.95 -1.8 28.7 52 -10.4 13.3
20:00 1016 30 845 24.95 -2.2 28 55 -10 13.9
20:05 1016 30 845 24.95 -2.4 27.7 57 -9.8 14.4
20:10 1016 30 845 24.95 -2.1 28.2 55 -9.9 14.2
20:15 1016 30 845 24.95 -1.1 30.1 52 -9.6 14.7
20:20 1016 30 845 24.95 -0.9 30.4 52 -9.4 15
20:25 1015 29.97 845 24.95 -1.4 29.5 55 -9.4 15.1
20:30 1015 29.97 844 24.92 -2.5 27.5 58 -9.6 14.7
20:35 1015 29.97 844 24.92 -3.4 25.9 61 -9.9 14.3
20:40 1015 29.97 844 24.92 -3.3 26.1 60 -10 14.1
20:45 1015 29.97 844 24.92 -3.2 26.3 61 -9.7 14.6
20:50 1015 29.97 844 24.92 -2.5 27.5 57 -9.9 14.1
20:55 1015 29.97 844 24.92 -1.5 29.3 55 -9.5 14.9
21:00 1015 29.97 844 24.92 -0.6 31 51 -9.5 14.8
21:05 1015 29.97 844 24.92 -0.3 31.4 52 -9 15.8
21:10 1014 29.94 844 24.92 -1.1 30.1 54 -9.2 15.5
21:15 1014 29.94 844 24.92 -1.6 29.2 55 -9.4 15.1
21:20 1014 29.94 843 24.89 -0.9 30.3 52 -9.6 14.8
21:25 1014 29.94 843 24.89 -0.2 31.6 51 -9.2 15.5
21:30 1014 29.94 843 24.89 0 32 50 -9.3 15.2
21:35 1014 29.94 843 24.89 0.7 33.3 48 -9.2 15.5
21:40 1014 29.94 843 24.89 -0 31.9 52 -8.9 16.1
21:45 1014 29.94 843 24.89 -0.5 31.1 51 -9.5 15
21:50 1014 29.94 843 24.89 0.2 32.4 50 -8.9 16
21:55 1014 29.94 843 24.89 0.3 32.5 50 -9 15.8
22:00 1014 29.94 844 24.92 0.1 32.2 50 -9.1 15.6
22:05 1014 29.94 844 24.92 -1.5 29.3 60 -8.4 16.9
22:10 1014 29.94 844 24.92 -3.7 25.4 64 -9.6 14.7
22:15 1014 29.94 844 24.92 -4.4 24.1 66 -9.9 14.1
22:20 1014 29.94 844 24.92 -4.8 23.4 66 -10.1 13.8
22:25 1015 29.97 844 24.92 -5 22.9 67 -10.2 13.6
22:30 1015 29.97 844 24.92 -4.9 23.1 65 -10.4 13.2
22:35 1015 29.97 844 24.92 -4.9 23.2 65 -10.5 13.2
22:40 1015 29.97 844 24.92 -4.9 23.2 64 -10.8 12.6
22:45 1015 29.97 844 24.92 -5 23 64 -10.8 12.5
22:50 1015 29.97 844 24.92 -5.2 22.7 64 -11 12.3
22:55 1015 29.97 844 24.92 -5.2 22.6 62 -11.3 11.6
23:00 1015 29.97 844 24.92 -5.5 22.2 64 -11.2 11.8
23:05 1015 29.97 844 24.92 -5.6 21.9 65 -11.3 11.7
23:10 1015 29.97 844 24.92 -5.8 21.5 66 -11.2 11.9
23:15 1015 29.97 844 24.92 -6.2 20.9 69 -11 12.1
23:20 1015 29.97 844 24.92 -6.5 20.4 70 -11 12.2
23:25 1015 29.97 844 24.92 -6.3 20.6 70 -11 12.2
23:30 1015 29.97 844 24.92 -5.7 21.8 67 -10.8 12.5
23:35 1015 29.97 844 24.92 -5.5 22 68 -10.6 12.9
23:40 1015 29.97 844 24.92 -5.3 22.5 66 -10.6 12.9
23:45 1015 29.97 844 24.92 -5 23 66 -10.5 13.1
23:50 1014 29.94 844 24.92 -5 23 66 -10.4 13.3
23:55 1014 29.94 844 24.92 -5 22.9 66 -10.4 13.2
24:00 1014 29.94 844 24.92 -5.2 22.6 67 -10.4 13.2